Time;durP1;ratioP1;P1;durP2;ratioP2;P2;SDS_P1;SDS_P2;PMS_P1;PMS_P2;Temp;Humidity;BMP_temperature;BMP_pressure;BME280_temperature;BME280_humidity;BME280_pressure;Samples;Min_cycle;Max_cycle;Signal;HPM_P1;HPM_P2
2023/07/29 00:01:07;;;;;;;4.30;2.70;;;16.40;99.90;;;;;;5059110;28;20075;-65
2023/07/29 00:03:33;;;;;;;;;;;16.50;99.90;;;;;;5060135;28;20512;-65
2023/07/29 00:05:58;;;;;;;1.92;1.70;;;16.50;99.90;;;;;;5057618;28;19920;-64
2023/07/29 00:08:24;;;;;;;;;;;16.50;99.90;;;;;;5058966;28;20048;-65
2023/07/29 00:10:49;;;;;;;1.95;1.55;;;16.50;99.90;;;;;;5059493;28;19921;-65
2023/07/29 00:13:15;;;;;;;;;;;16.50;99.90;;;;;;5060055;28;20386;-66
2023/07/29 00:15:40;;;;;;;2.85;1.55;;;16.60;99.90;;;;;;5059487;28;19921;-66
2023/07/29 00:18:06;;;;;;;5.97;2.20;;;16.60;99.90;;;;;;5050295;28;20547;-65
2023/07/29 00:20:32;;;;;;;6.85;1.85;;;16.60;99.90;;;;;;5044651;28;20036;-65
2023/07/29 00:22:58;;;;;;;;;;;16.60;99.90;;;;;;5045993;28;20114;-65
2023/07/29 00:25:24;;;;;;;2.90;1.40;;;16.60;99.90;;;;;;5046768;28;20382;-65
2023/07/29 00:27:49;;;;;;;5.90;1.70;;;16.50;99.90;;;;;;5044129;28;20041;-65
2023/07/29 00:30:15;;;;;;;7.82;1.40;;;16.60;99.90;;;;;;5043654;28;20051;-65
2023/07/29 00:32:41;;;;;;;2.70;1.35;;;16.50;99.90;;;;;;5040370;28;20033;-65
2023/07/29 00:35:07;;;;;;;;;;;16.50;99.90;;;;;;5045181;28;20028;-65
2023/07/29 00:37:32;;;;;;;1.63;1.25;;;16.50;99.90;;;;;;5045253;28;19916;-65
2023/07/29 00:39:58;;;;;;;;;;;16.50;99.90;;;;;;5039269;28;20033;-65
2023/07/29 00:42:24;;;;;;;12.98;1.67;;;16.50;99.90;;;;;;5044696;28;19920;-65
2023/07/29 00:44:50;;;;;;;6.50;1.33;;;16.50;99.90;;;;;;5026218;28;20072;-65
2023/07/29 00:47:16;;;;;;;;;;;16.50;99.90;;;;;;5027525;28;20087;-65
2023/07/29 00:49:43;;;;;;;7.60;1.00;;;16.50;99.90;;;;;;5044968;28;19920;-65
2023/07/29 00:52:11;;;;;;;1.27;1.08;;;16.50;99.90;;;;;;5045477;28;20079;-64
2023/07/29 00:54:40;;;;;;;1.95;0.95;;;16.50;99.90;;;;;;5046119;28;20552;-65
2023/07/29 00:57:08;;;;;;;9.20;1.08;;;16.50;99.90;;;;;;5045337;28;20408;-65
2023/07/29 00:59:35;;;;;;;3.78;1.23;;;16.50;99.90;;;;;;5037046;28;20037;-65
2023/07/29 01:02:02;;;;;;;3.17;1.20;;;16.50;99.90;;;;;;5043503;28;20041;-65
2023/07/29 01:04:27;;;;;;;5.45;1.33;;;16.50;99.90;;;;;;5043649;28;20033;-65
2023/07/29 01:06:58;;;;;;;;;;;16.60;99.90;;;;;;5042517;28;20079;-65
2023/07/29 01:09:58;;;;;;;5.93;1.00;;;16.60;99.90;;;;;;5044364;28;19916;-66
2023/07/29 01:12:28;;;;;;;5.30;1.27;;;16.60;99.90;;;;;;5045137;28;20079;-66
2023/07/29 01:15:16;;;;;;;8.05;0.98;;;16.60;99.90;;;;;;5035057;28;20783;-66
2023/07/29 01:17:46;;;;;;;2.88;0.77;;;16.60;99.90;;;;;;5039825;28;20036;-66
2023/07/29 01:20:15;;;;;;;10.82;1.15;;;16.70;99.90;;;;;;5044459;28;20037;-67
2023/07/29 01:22:42;;;;;;;1.85;0.95;;;16.70;99.90;;;;;;5044947;28;20041;-66
2023/07/29 01:25:08;;;;;;;2.67;1.00;;;16.70;99.90;;;;;;5044710;28;20036;-66
2023/07/29 01:27:33;;;;;;;2.55;1.00;;;16.70;99.90;;;;;;5044097;28;20053;-67
2023/07/29 01:30:00;;;;;;;;;;;16.70;99.90;;;;;;5043711;28;20044;-67
2023/07/29 01:32:29;;;;;;;1.60;0.80;;;16.60;99.90;;;;;;5044388;28;19995;-67
2023/07/29 01:35:26;;;;;;;2.28;1.00;;;16.60;99.90;;;;;;5044416;28;20511;-66
2023/07/29 01:37:59;;;;;;;2.13;1.40;;;16.60;99.90;;;;;;5020669;28;20033;-67
2023/07/29 01:40:28;;;;;;;5.47;1.10;;;16.60;99.90;;;;;;5045574;28;20534;-67
2023/07/29 01:42:54;;;;;;;5.95;1.00;;;16.70;99.90;;;;;;5041609;28;20067;-67
2023/07/29 01:45:24;;;;;;;2.85;0.93;;;16.70;99.90;;;;;;5044694;28;20094;-66
2023/07/29 01:47:50;;;;;;;7.15;1.35;;;16.70;99.90;;;;;;5044401;28;20037;-66
2023/07/29 01:50:15;;;;;;;;;;;16.70;99.90;;;;;;5043842;28;20386;-67
2023/07/29 01:52:41;;;;;;;4.18;1.00;;;16.70;99.90;;;;;;5045091;28;20347;-67
2023/07/29 01:55:07;;;;;;;;;;;16.70;99.90;;;;;;5045054;28;20467;-67
2023/07/29 01:57:32;;;;;;;3.42;1.23;;;16.70;99.90;;;;;;5043761;28;19920;-68
2023/07/29 01:59:58;;;;;;;6.28;1.55;;;16.70;99.90;;;;;;5044329;28;20047;-66
2023/07/29 02:02:24;;;;;;;;;;;16.70;99.90;;;;;;5044484;28;20045;-66
2023/07/29 02:04:51;;;;;;;2.35;1.30;;;16.70;99.90;;;;;;5044851;28;19920;-67
2023/07/29 02:07:20;;;;;;;4.53;1.15;;;16.70;99.90;;;;;;5044547;28;20029;-66
2023/07/29 02:09:46;;;;;;;9.07;1.33;;;16.80;99.90;;;;;;5044838;28;20041;-66
2023/07/29 02:12:11;;;;;;;;;;;16.80;99.90;;;;;;5045097;28;20041;-66
2023/07/29 02:14:37;;;;;;;3.10;1.60;;;16.70;99.90;;;;;;5043983;28;19921;-65
2023/07/29 02:17:02;;;;;;;;;;;16.70;99.90;;;;;;5045396;28;20095;-66
2023/07/29 02:19:28;;;;;;;6.63;1.60;;;16.70;99.90;;;;;;5043531;28;19916;-67
2023/07/29 02:21:54;;;;;;;;;;;16.70;99.90;;;;;;5045596;28;20052;-67
2023/07/29 02:24:19;;;;;;;3.72;1.48;;;16.70;99.90;;;;;;5043304;28;19921;-67
2023/07/29 02:26:45;;;;;;;1.83;1.30;;;16.70;99.90;;;;;;5044023;28;20049;-66
2023/07/29 02:29:11;;;;;;;6.60;1.90;;;16.70;99.90;;;;;;5043623;28;20072;-66
2023/07/29 02:31:37;;;;;;;;;;;16.70;99.90;;;;;;5044399;28;20104;-64
2023/07/29 02:34:04;;;;;;;1.50;1.30;;;16.70;99.90;;;;;;5044018;28;19921;-65
2023/07/29 02:36:29;;;;;;;2.47;1.35;;;16.70;99.90;;;;;;5044072;28;20536;-65
2023/07/29 02:38:55;;;;;;;;;;;16.80;99.90;;;;;;5044294;28;20076;-66
2023/07/29 02:41:21;;;;;;;6.40;1.40;;;16.80;99.90;;;;;;5045235;28;19921;-66
2023/07/29 02:43:50;;;;;;;;;;;16.70;99.90;;;;;;5044910;28;20039;-67
2023/07/29 02:46:15;;;;;;;6.95;1.80;;;16.70;99.90;;;;;;5045019;28;19931;-67
2023/07/29 02:48:41;;;;;;;;;;;16.80;99.90;;;;;;5043723;28;20036;-66
2023/07/29 02:51:07;;;;;;;8.65;2.10;;;16.80;99.90;;;;;;5044144;28;19917;-67
2023/07/29 02:53:32;;;;;;;;;;;16.80;99.90;;;;;;5044621;28;20048;-67
2023/07/29 02:55:58;;;;;;;9.25;2.30;;;16.80;99.90;;;;;;5045143;28;19976;-66
2023/07/29 02:58:26;;;;;;;4.68;2.13;;;16.80;99.90;;;;;;5044406;28;20111;-66
2023/07/29 03:00:51;;;;;;;5.78;2.10;;;16.80;99.90;;;;;;5025064;28;20151;-65
2023/07/29 03:03:18;;;;;;;;;;;16.80;99.90;;;;;;5044778;28;20080;-66
2023/07/29 03:05:44;;;;;;;5.22;1.70;;;16.80;99.90;;;;;;5043728;28;19927;-65
2023/07/29 03:08:10;;;;;;;3.60;1.65;;;16.80;99.90;;;;;;5043742;28;20042;-65
2023/07/29 03:10:38;;;;;;;;;;;16.80;99.90;;;;;;5043685;28;20044;-67
2023/07/29 03:13:04;;;;;;;2.47;1.60;;;16.80;99.90;;;;;;5041724;28;19950;-65
2023/07/29 03:15:30;;;;;;;;;;;16.80;99.90;;;;;;5044059;28;20098;-65
2023/07/29 03:17:56;;;;;;;3.38;1.45;;;16.80;99.90;;;;;;5025192;28;19921;-65
2023/07/29 03:20:24;;;;;;;3.42;1.42;;;16.80;99.90;;;;;;5025782;28;20935;-66
2023/07/29 03:22:50;;;;;;;6.32;1.83;;;16.80;99.90;;;;;;5026197;28;20124;-66
2023/07/29 03:25:16;;;;;;;;;;;16.80;99.90;;;;;;5043790;28;20659;-65
2023/07/29 03:27:41;;;;;;;4.80;1.50;;;16.80;99.90;;;;;;5044153;28;19917;-66
2023/07/29 03:30:07;;;;;;;;;;;16.80;99.90;;;;;;5042966;28;20025;-65
2023/07/29 03:32:33;;;;;;;5.50;1.60;;;16.80;99.90;;;;;;5042576;28;20035;-65
2023/07/29 03:34:58;;;;;;;;;;;16.70;99.90;;;;;;5042697;28;20033;-65
2023/07/29 03:37:24;;;;;;;3.42;1.48;;;16.70;99.90;;;;;;5041558;28;19924;-66
2023/07/29 03:39:51;;;;;;;6.95;1.50;;;16.80;99.90;;;;;;5042863;28;20132;-65
2023/07/29 03:42:17;;;;;;;4.10;1.35;;;16.70;99.90;;;;;;5044045;28;20067;-65
2023/07/29 03:44:43;;;;;;;;;;;16.70;99.90;;;;;;5043957;28;20049;-64
2023/07/29 03:47:08;;;;;;;4.30;1.50;;;16.80;99.90;;;;;;5042772;28;20750;-63
2023/07/29 03:49:34;;;;;;;5.63;1.48;;;16.80;99.90;;;;;;5042106;28;20041;-65
2023/07/29 03:51:59;;;;;;;;;;;16.80;99.90;;;;;;5043356;28;20052;-66
2023/07/29 03:54:26;;;;;;;3.67;1.40;;;16.80;99.90;;;;;;5042263;28;19916;-66
2023/07/29 03:56:51;;;;;;;1.83;1.40;;;16.80;99.90;;;;;;5046238;28;20041;-65
2023/07/29 03:59:17;;;;;;;;;;;16.80;99.90;;;;;;5045686;28;20048;-65
2023/07/29 04:01:42;;;;;;;3.85;1.10;;;16.80;99.90;;;;;;5026600;28;19921;-67
2023/07/29 04:04:08;;;;;;;2.55;0.80;;;16.80;99.90;;;;;;5046284;28;20124;-64
2023/07/29 04:06:33;;;;;;;;;;;16.90;99.90;;;;;;5048681;28;20719;-65
2023/07/29 04:08:59;;;;;;;3.05;1.38;;;16.80;99.90;;;;;;5046265;28;20011;-66
2023/07/29 04:11:25;;;;;;;3.53;2.47;;;16.80;99.90;;;;;;5046915;28;20779;-66
2023/07/29 04:13:51;;;;;;;4.85;1.60;;;16.80;99.90;;;;;;5047353;28;20044;-65
2023/07/29 04:16:16;;;;;;;;;;;16.80;99.90;;;;;;5047637;28;20048;-65
2023/07/29 04:18:42;;;;;;;2.25;1.00;;;16.80;99.90;;;;;;5042578;28;19921;-64
2023/07/29 04:21:08;;;;;;;4.80;1.40;;;16.80;99.90;;;;;;5045717;28;20397;-65
2023/07/29 04:23:33;;;;;;;;;;;16.80;99.90;;;;;;5043473;28;20040;-65
2023/07/29 04:25:59;;;;;;;2.45;1.20;;;16.90;99.90;;;;;;5044356;28;20026;-67
2023/07/29 04:28:24;;;;;;;;;;;16.90;99.90;;;;;;5048112;28;20104;-68
2023/07/29 04:30:50;;;;;;;4.60;1.52;;;16.90;99.90;;;;;;5040048;28;20372;-66
2023/07/29 04:33:15;;;;;;;;;;;16.90;99.90;;;;;;5027767;28;20072;-67
2023/07/29 04:35:41;;;;;;;4.57;1.48;;;16.90;99.90;;;;;;5021321;28;19917;-65
2023/07/29 04:38:07;;;;;;;1.50;1.20;;;16.90;99.90;;;;;;5019738;28;20092;-68
2023/07/29 04:40:33;;;;;;;;;;;16.90;99.90;;;;;;5026099;28;20469;-65
2023/07/29 04:43:01;;;;;;;2.83;1.00;;;16.90;99.90;;;;;;5023245;28;20381;-68
2023/07/29 04:45:30;;;;;;;1.08;0.80;;;16.90;99.90;;;;;;5027519;28;20531;-65
2023/07/29 04:47:56;;;;;;;3.47;1.20;;;16.90;99.90;;;;;;5020351;28;20580;-65
2023/07/29 04:50:22;;;;;;;3.10;1.00;;;16.80;99.90;;;;;;5016196;28;20077;-65
2023/07/29 04:52:47;;;;;;;;;;;16.90;99.90;;;;;;5012362;28;20033;-67
2023/07/29 04:55:13;;;;;;;5.63;1.13;;;16.90;99.90;;;;;;5025966;28;19978;-66
2023/07/29 04:57:38;;;;;;;;;;;16.90;99.90;;;;;;5018610;28;20038;-66
2023/07/29 05:00:04;;;;;;;1.48;0.90;;;16.90;99.90;;;;;;5025830;28;20332;-66
2023/07/29 05:02:30;;;;;;;;;;;17.00;99.90;;;;;;5016960;28;20049;-65
2023/07/29 05:04:56;;;;;;;4.18;1.15;;;16.90;99.90;;;;;;5026266;28;20494;-65
2023/07/29 05:07:21;;;;;;;1.50;0.80;;;17.00;99.90;;;;;;5031776;28;20071;-66
2023/07/29 05:09:48;;;;;;;4.00;0.70;;;17.00;99.90;;;;;;5043506;28;20075;-66
2023/07/29 05:12:13;;;;;;;0.80;0.80;;;16.90;99.90;;;;;;5044767;28;20033;-65
2023/07/29 05:14:39;;;;;;;;;;;17.00;99.90;;;;;;5044508;28;20713;-66
2023/07/29 05:17:05;;;;;;;3.05;1.02;;;17.00;99.90;;;;;;5044741;28;19924;-65
2023/07/29 05:19:30;;;;;;;1.60;0.55;;;17.00;99.90;;;;;;5040227;28;20505;-65
2023/07/29 05:21:57;;;;;;;;;;;17.10;99.90;;;;;;5041744;28;20086;-65
2023/07/29 05:24:23;;;;;;;1.02;0.40;;;17.10;99.90;;;;;;5044834;28;19925;-67
2023/07/29 05:26:49;;;;;;;2.55;0.50;;;17.10;99.90;;;;;;5032673;28;20575;-66
2023/07/29 05:29:14;;;;;;;;;;;17.10;99.90;;;;;;5044585;28;20047;-66
2023/07/29 05:31:40;;;;;;;1.60;0.50;;;17.10;99.90;;;;;;5044385;28;19917;-66
2023/07/29 05:34:06;;;;;;;0.63;0.40;;;17.20;99.90;;;;;;5044682;28;20025;-66
2023/07/29 05:36:31;;;;;;;0.50;0.50;;;17.10;99.90;;;;;;5045636;28;20641;-67
2023/07/29 05:38:57;;;;;;;2.85;0.50;;;17.10;99.90;;;;;;5044124;28;20045;-66
2023/07/29 05:41:23;;;;;;;0.90;0.50;;;17.20;99.90;;;;;;5045039;28;20041;-67
2023/07/29 05:43:48;;;;;;;;;;;17.10;99.90;;;;;;5046017;28;20041;-65
2023/07/29 05:46:14;;;;;;;2.30;0.70;;;17.10;99.90;;;;;;5045245;28;19921;-67
2023/07/29 05:48:40;;;;;;;1.73;0.73;;;17.00;99.90;;;;;;5037567;28;20037;-65
2023/07/29 05:51:05;;;;;;;3.28;0.93;;;17.00;99.90;;;;;;5043066;28;20615;-66
2023/07/29 05:53:31;;;;;;;2.22;0.70;;;17.00;99.90;;;;;;5038209;28;20069;-67
2023/07/29 05:55:57;;;;;;;;;;;17.00;99.90;;;;;;5033816;28;20049;-65
2023/07/29 05:58:22;;;;;;;1.30;0.60;;;17.00;99.90;;;;;;5041543;28;19920;-64
2023/07/29 06:00:48;;;;;;;;;;;17.00;99.90;;;;;;5040914;28;20167;-66
2023/07/29 06:03:14;;;;;;;6.10;0.80;;;17.00;99.90;;;;;;5037145;28;19927;-66
2023/07/29 06:05:39;;;;;;;3.45;0.90;;;17.00;99.90;;;;;;5028468;28;20122;-63
2023/07/29 06:08:05;;;;;;;;;;;17.00;99.90;;;;;;5045080;28;20047;-65
2023/07/29 06:10:31;;;;;;;1.48;0.70;;;17.00;99.90;;;;;;5030661;28;20415;-65
2023/07/29 06:12:56;;;;;;;;;;;17.00;99.90;;;;;;5044351;28;20524;-63
2023/07/29 06:15:22;;;;;;;0.77;0.50;;;17.00;99.90;;;;;;5042580;28;19970;-66
2023/07/29 06:17:48;;;;;;;5.95;0.77;;;17.00;99.90;;;;;;5025645;28;20045;-66
2023/07/29 06:20:14;;;;;;;2.63;0.60;;;17.00;99.90;;;;;;5043836;28;20037;-65
2023/07/29 06:22:40;;;;;;;;;;;17.10;99.90;;;;;;5044932;28;20036;-63
2023/07/29 06:25:06;;;;;;;3.88;0.40;;;17.10;99.90;;;;;;5045029;28;20461;-65
2023/07/29 06:27:32;;;;;;;;;;;17.10;99.90;;;;;;5041957;28;20076;-66
2023/07/29 06:29:57;;;;;;;0.70;0.50;;;17.10;99.90;;;;;;5042196;28;20438;-65
2023/07/29 06:32:23;;;;;;;;;;;17.10;99.90;;;;;;5059528;28;20040;-63
2023/07/29 06:34:49;;;;;;;0.40;0.30;;;17.10;99.90;;;;;;5062890;28;19965;-64
2023/07/29 06:37:14;;;;;;;0.45;0.38;;;17.20;99.90;;;;;;5065143;28;20051;-63
2023/07/29 06:39:40;;;;;;;;;;;17.20;99.90;;;;;;5065228;28;20044;-64
2023/07/29 06:42:06;;;;;;;1.13;0.60;;;17.20;99.90;;;;;;5063787;28;19924;-65
2023/07/29 06:44:32;;;;;;;2.95;0.40;;;17.30;99.90;;;;;;5066071;28;20128;-66
2023/07/29 06:46:58;;;;;;;0.65;0.60;;;17.30;99.90;;;;;;5065095;28;20052;-65
2023/07/29 06:49:24;;;;;;;;;;;17.30;99.90;;;;;;5062751;28;20028;-65
2023/07/29 06:51:49;;;;;;;0.80;0.68;;;17.30;99.90;;;;;;5059113;28;19921;-65
2023/07/29 06:54:17;;;;;;;0.52;0.52;;;17.30;99.90;;;;;;5051570;28;20149;-65
2023/07/29 06:56:42;;;;;;;0.65;0.50;;;17.40;99.90;;;;;;5060521;28;20043;-65
2023/07/29 06:59:08;;;;;;;;;;;17.30;99.90;;;;;;5060595;28;20024;-66
2023/07/29 07:01:34;;;;;;;1.33;0.85;;;17.30;99.90;;;;;;5063321;28;19920;-64
2023/07/29 07:04:00;;;;;;;2.65;1.42;;;17.40;99.90;;;;;;5053018;28;20037;-65
2023/07/29 07:06:25;;;;;;;;;;;17.30;99.90;;;;;;5044964;28;20044;-66
2023/07/29 07:08:51;;;;;;;6.65;1.30;;;17.40;99.90;;;;;;5043131;28;20439;-66
2023/07/29 07:11:18;;;;;;;1.67;1.20;;;17.30;99.90;;;;;;5043302;28;20048;-66
2023/07/29 07:13:44;;;;;;;1.45;1.27;;;17.30;99.90;;;;;;5040476;28;20136;-65
2023/07/29 07:16:09;;;;;;;;;;;17.30;99.90;;;;;;5043188;28;20736;-65
2023/07/29 07:18:35;;;;;;;1.98;1.48;;;17.30;99.90;;;;;;5051109;28;19927;-65
2023/07/29 07:21:01;;;;;;;2.03;1.35;;;17.30;99.90;;;;;;5048392;28;20036;-66
2023/07/29 07:23:26;;;;;;;1.70;1.60;;;17.40;99.90;;;;;;5043408;28;20103;-65
2023/07/29 07:25:52;;;;;;;2.40;2.00;;;17.30;99.90;;;;;;5046794;28;20068;-66
2023/07/29 07:28:18;;;;;;;;;;;17.30;99.90;;;;;;5042741;28;20108;-65
2023/07/29 07:30:43;;;;;;;3.40;2.20;;;17.40;99.90;;;;;;5044482;28;19956;-65
2023/07/29 07:33:09;;;;;;;;;;;17.40;99.90;;;;;;5063194;28;20056;-65
2023/07/29 07:35:35;;;;;;;2.50;2.22;;;17.40;99.90;;;;;;5062397;28;20006;-65
2023/07/29 07:38:03;;;;;;;3.10;2.20;;;17.40;99.90;;;;;;5061477;28;20047;-65
2023/07/29 07:40:30;;;;;;;2.80;2.58;;;17.40;99.90;;;;;;5065276;28;20044;-65
2023/07/29 07:42:56;;;;;;;2.92;2.67;;;17.30;99.90;;;;;;5066496;28;20116;-65
2023/07/29 07:45:21;;;;;;;;;;;17.30;99.90;;;;;;5075477;28;20040;-65
2023/07/29 07:47:47;;;;;;;2.63;2.35;;;17.30;99.90;;;;;;5078293;28;19995;-65
2023/07/29 07:50:14;;;;;;;5.18;2.83;;;17.40;99.90;;;;;;5066673;28;20036;-65
2023/07/29 07:52:39;;;;;;;4.47;2.95;;;17.40;99.90;;;;;;5066796;28;20033;-65
2023/07/29 07:55:05;;;;;;;;;;;17.40;99.90;;;;;;5067136;28;20031;-65
2023/07/29 07:57:31;;;;;;;4.97;4.22;;;17.40;99.90;;;;;;5068423;28;19930;-65
2023/07/29 07:59:56;;;;;;;5.20;4.70;;;17.40;99.90;;;;;;5075388;28;20506;-65
2023/07/29 08:02:22;;;;;;;6.07;4.60;;;17.40;99.90;;;;;;5063568;28;20037;-66
2023/07/29 08:04:48;;;;;;;5.50;4.40;;;17.50;99.90;;;;;;5078804;28;20505;-65
2023/07/29 08:07:14;;;;;;;7.55;5.07;;;17.50;99.90;;;;;;5065183;28;20127;-65
2023/07/29 08:09:39;;;;;;;6.40;5.47;;;17.40;99.90;;;;;;5064663;28;20111;-65
2023/07/29 08:12:05;;;;;;;;;;;17.40;99.90;;;;;;5065990;28;20767;-65
2023/07/29 08:14:31;;;;;;;8.00;5.50;;;17.50;99.90;;;;;;5065867;28;20614;-65
2023/07/29 08:16:57;;;;;;;6.68;5.25;;;17.50;99.90;;;;;;5070038;28;20718;-66
2023/07/29 08:19:22;;;;;;;;;;;17.50;99.90;;;;;;5079555;28;20043;-65
2023/07/29 08:21:48;;;;;;;6.70;5.63;;;17.50;99.90;;;;;;5066547;28;19928;-65
2023/07/29 08:24:14;;;;;;;8.65;6.63;;;17.60;99.90;;;;;;5066125;28;20028;-65
2023/07/29 08:26:39;;;;;;;;;;;17.60;99.90;;;;;;5068433;28;20044;-66
2023/07/29 08:29:05;;;;;;;6.68;5.60;;;17.60;99.90;;;;;;5066302;28;19916;-66
2023/07/29 08:31:33;;;;;;;8.05;5.45;;;17.60;99.90;;;;;;5063977;28;20036;-65
2023/07/29 08:33:59;;;;;;;5.55;5.03;;;17.60;99.90;;;;;;5066987;28;20086;-66
2023/07/29 08:36:25;;;;;;;6.95;5.65;;;17.60;99.90;;;;;;5067296;28;20139;-66
2023/07/29 08:38:51;;;;;;;6.13;5.38;;;17.60;99.90;;;;;;5066679;28;20396;-65
2023/07/29 08:41:19;;;;;;;;;;;17.60;99.90;;;;;;5067662;28;20044;-67
2023/07/29 08:43:56;;;;;;;5.30;4.80;;;17.50;99.90;;;;;;5065483;28;19916;-65
2023/07/29 08:46:21;;;;;;;5.35;4.85;;;17.50;99.90;;;;;;5067939;28;20728;-65
2023/07/29 08:48:47;;;;;;;;;;;17.50;99.90;;;;;;5065564;28;20770;-66
2023/07/29 08:51:14;;;;;;;5.63;3.92;;;17.40;99.90;;;;;;5069414;28;19931;-66
2023/07/29 08:53:40;;;;;;;4.40;3.65;;;17.50;99.90;;;;;;5074045;28;20542;-66
2023/07/29 08:56:06;;;;;;;;;;;17.60;99.90;;;;;;5066755;28;20044;-65
2023/07/29 08:58:32;;;;;;;5.50;3.47;;;18.00;99.90;;;;;;5075064;28;19916;-65
2023/07/29 09:00:58;;;;;;;3.85;3.38;;;18.30;99.90;;;;;;5068887;28;20055;-66
2023/07/29 09:03:24;;;;;;;;;;;18.30;99.90;;;;;;5069323;28;20036;-67
2023/07/29 09:05:50;;;;;;;4.10;3.70;;;18.40;99.90;;;;;;5069256;28;19962;-67
2023/07/29 09:08:17;;;;;;;5.22;3.50;;;18.40;99.90;;;;;;5068068;28;20044;-66
2023/07/29 09:10:43;;;;;;;4.13;3.70;;;18.30;99.90;;;;;;5062992;28;20509;-65
2023/07/29 09:13:09;;;;;;;4.38;3.67;;;18.30;99.90;;;;;;5063387;28;20029;-66
2023/07/29 09:15:35;;;;;;;;;;;18.30;99.90;;;;;;5066894;28;20078;-64
2023/07/29 09:18:10;;;;;;;5.40;4.10;;;18.40;99.90;;;;;;5063050;28;19978;-65
2023/07/29 09:20:36;;;;;;;5.25;3.42;;;18.40;99.90;;;;;;5074660;28;20372;-66
2023/07/29 09:23:01;;;;;;;;;;;18.40;99.90;;;;;;5070333;28;20112;-66
2023/07/29 09:25:28;;;;;;;4.38;3.88;;;18.40;99.90;;;;;;5064882;28;19951;-67
2023/07/29 09:28:01;;;;;;;7.90;4.47;;;18.40;99.90;;;;;;5064641;28;20048;-67
2023/07/29 09:30:28;;;;;;;8.93;4.32;;;18.50;99.90;;;;;;5061283;28;20044;-65
2023/07/29 09:32:58;;;;;;;5.47;4.30;;;18.60;99.90;;;;;;5068076;28;20040;-66
2023/07/29 09:35:30;;;;;;;8.07;3.88;;;18.60;99.90;;;;;;5071224;28;20044;-66
2023/07/29 09:37:56;;;;;;;4.13;3.67;;;18.80;99.90;;;;;;5059961;28;20040;-66
2023/07/29 09:40:21;;;;;;;;;;;18.90;99.90;;;;;;5077569;28;20036;-66
2023/07/29 09:42:56;;;;;;;6.68;4.13;;;19.20;99.90;;;;;;5064207;28;20503;-65
2023/07/29 09:45:26;;;;;;;4.43;3.90;;;19.40;99.90;;;;;;5064353;28;20197;-65
2023/07/29 09:47:54;;;;;;;5.32;4.15;;;19.30;99.90;;;;;;5064223;28;20072;-65
2023/07/29 09:50:26;;;;;;;5.50;3.75;;;19.40;99.90;;;;;;5059035;28;20044;-67
2023/07/29 09:52:54;;;;;;;4.25;3.38;;;19.40;99.90;;;;;;5067063;28;20111;-66
2023/07/29 09:55:23;;;;;;;5.55;3.83;;;19.30;99.90;;;;;;5071064;28;20029;-66
2023/07/29 09:58:04;;;;;;;8.68;3.92;;;19.20;99.90;;;;;;5064055;28;20801;-67
2023/07/29 10:00:30;;;;;;;5.38;3.85;;;19.20;99.90;;;;;;5061880;28;20041;-66
2023/07/29 10:02:57;;;;;;;4.78;3.50;;;19.30;99.90;;;;;;5062199;28;20796;-66
2023/07/29 10:05:25;;;;;;;4.30;3.60;;;19.50;99.90;;;;;;5062753;28;20089;-68
2023/07/29 10:07:51;;;;;;;4.97;3.42;;;19.40;99.90;;;;;;5061895;28;20047;-67
2023/07/29 10:10:17;;;;;;;5.40;3.80;;;19.50;99.90;;;;;;5080979;28;20040;-68
2023/07/29 10:12:43;;;;;;;7.10;3.10;;;19.50;99.90;;;;;;5065016;28;20059;-68
2023/07/29 10:15:10;;;;;;;4.47;3.42;;;19.70;99.90;;;;;;5063177;28;20044;-68
2023/07/29 10:17:40;;;;;;;3.85;3.00;;;19.80;99.90;;;;;;5058134;28;20105;-68
2023/07/29 10:20:08;;;;;;;2.95;2.65;;;20.00;99.90;;;;;;5065040;28;20396;-67
2023/07/29 10:22:40;;;;;;;3.15;2.78;;;20.00;99.90;;;;;;5063459;28;20048;-68
2023/07/29 10:25:17;;;;;;;3.85;2.90;;;20.10;99.90;;;;;;5065370;28;20699;-69
2023/07/29 10:28:24;;;;;;;4.18;2.67;;;20.00;99.90;;;;;;5061607;28;20787;-67
2023/07/29 10:30:50;;;;;;;5.78;2.75;;;20.20;99.90;;;;;;5039804;28;20127;-67
2023/07/29 10:33:16;;;;;;;7.25;2.58;;;20.30;99.90;;;;;;5024877;28;20131;-67
2023/07/29 10:35:42;;;;;;;4.22;3.00;;;20.40;99.90;;;;;;5043403;28;20049;-67
2023/07/29 10:38:08;;;;;;;2.67;2.42;;;20.50;99.90;;;;;;5050812;28;20040;-67
2023/07/29 10:40:51;;;;;;;3.55;2.40;;;20.70;99.90;;;;;;5062420;28;20706;-68
2023/07/29 10:43:34;;;;;;;4.75;2.15;;;20.80;99.90;;;;;;5062887;28;20709;-67
2023/07/29 10:46:23;;;;;;;3.05;1.63;;;20.70;99.90;;;;;;5064225;28;20056;-67
2023/07/29 10:48:55;;;;;;;2.28;1.98;;;20.80;99.90;;;;;;5061794;28;20117;-67
2023/07/29 10:51:29;;;;;;;2.47;1.60;;;20.90;99.90;;;;;;5064377;28;20403;-67
2023/07/29 10:54:03;;;;;;;2.55;1.80;;;20.90;99.90;;;;;;5063053;28;20043;-67
2023/07/29 10:56:36;;;;;;;3.33;1.95;;;20.90;99.90;;;;;;5065937;28;20514;-67
2023/07/29 10:59:17;;;;;;;4.25;1.63;;;20.80;99.90;;;;;;5062170;28;20028;-67
2023/07/29 11:01:56;;;;;;;3.75;1.65;;;20.60;99.90;;;;;;5063445;28;20179;-67
2023/07/29 11:04:30;;;;;;;2.13;1.70;;;20.40;99.90;;;;;;5061289;28;20091;-67
2023/07/29 11:07:07;;;;;;;2.72;1.95;;;20.30;99.90;;;;;;5063654;28;20048;-67
2023/07/29 11:09:50;;;;;;;2.42;2.03;;;20.20;99.90;;;;;;5062680;28;20063;-68
2023/07/29 11:12:51;;;;;;;3.15;1.73;;;20.00;99.90;;;;;;5062434;28;20067;-67
2023/07/29 11:15:19;;;;;;;2.08;1.75;;;20.10;99.90;;;;;;5062827;28;20131;-67
2023/07/29 11:17:49;;;;;;;2.00;1.50;;;20.40;99.90;;;;;;5067109;28;20146;-67
2023/07/29 11:20:16;;;;;;;1.83;1.45;;;20.40;99.90;;;;;;5065716;28;20063;-67
2023/07/29 11:22:42;;;;;;;4.47;1.42;;;20.30;99.90;;;;;;5066016;28;20049;-67
2023/07/29 11:25:10;;;;;;;4.20;1.60;;;20.30;99.90;;;;;;5064706;28;20058;-67
2023/07/29 11:27:36;;;;;;;3.83;1.40;;;20.40;99.90;;;;;;5065011;28;20053;-67
2023/07/29 11:30:10;;;;;;;2.25;1.00;;;20.40;99.90;;;;;;5065241;28;20047;-66
2023/07/29 11:32:38;;;;;;;2.25;1.50;;;20.60;99.90;;;;;;5065409;28;20033;-67
2023/07/29 11:35:05;;;;;;;6.32;1.20;;;20.50;99.90;;;;;;5065649;28;20048;-66
2023/07/29 11:37:32;;;;;;;1.45;1.13;;;20.50;99.90;;;;;;5065481;28;20150;-66
2023/07/29 11:39:58;;;;;;;2.85;1.67;;;20.50;99.90;;;;;;5065372;28;20041;-67
2023/07/29 11:42:24;;;;;;;1.33;1.10;;;20.40;99.90;;;;;;5063270;28;20530;-67
2023/07/29 11:44:49;;;;;;;1.67;1.10;;;20.40;99.90;;;;;;5064439;28;20040;-66
2023/07/29 11:47:15;;;;;;;2.08;1.05;;;20.50;99.90;;;;;;5062717;28;20047;-66
2023/07/29 11:49:41;;;;;;;1.50;1.10;;;20.60;99.90;;;;;;5060211;28;20087;-66
2023/07/29 11:52:08;;;;;;;2.97;0.98;;;20.70;99.90;;;;;;5060156;28;20044;-65
2023/07/29 11:54:38;;;;;;;1.88;0.77;;;20.90;99.90;;;;;;5062060;28;20043;-66
2023/07/29 11:57:06;;;;;;;1.52;1.08;;;21.00;99.90;;;;;;5062797;28;20451;-65
2023/07/29 11:59:33;;;;;;;1.13;0.93;;;21.00;99.90;;;;;;5062426;28;20145;-66
2023/07/29 12:02:01;;;;;;;1.58;1.05;;;20.80;99.90;;;;;;5062960;28;20186;-66
2023/07/29 12:04:27;;;;;;;2.10;0.90;;;20.60;99.90;;;;;;5063724;28;20044;-66
2023/07/29 12:06:53;;;;;;;3.10;1.13;;;20.40;99.90;;;;;;5062103;28;20538;-66
2023/07/29 12:09:19;;;;;;;1.00;0.85;;;20.30;99.90;;;;;;5061029;28;20037;-66
2023/07/29 12:11:45;;;;;;;4.35;1.40;;;20.20;99.90;;;;;;5052673;28;20511;-66
2023/07/29 12:14:10;;;;;;;3.00;1.10;;;20.10;99.90;;;;;;5064513;28;20040;-65
2023/07/29 12:16:43;;;;;;;1.73;1.10;;;20.10;99.90;;;;;;5065929;28;20112;-67
2023/07/29 12:19:13;;;;;;;1.90;1.10;;;19.90;99.90;;;;;;5066936;28;20040;-67
2023/07/29 12:21:43;;;;;;;4.55;1.30;;;19.80;99.90;;;;;;5065074;28;20044;-66
2023/07/29 12:24:09;;;;;;;4.00;1.23;;;19.80;99.90;;;;;;5062857;28;20148;-67
2023/07/29 12:26:38;;;;;;;1.55;1.10;;;19.70;99.90;;;;;;5062006;28;20484;-67
2023/07/29 12:29:14;;;;;;;1.30;0.88;;;19.60;99.90;;;;;;5063827;28;20040;-66
2023/07/29 12:31:40;;;;;;;;;;;19.60;99.90;;;;;;5062307;28;20041;-67
2023/07/29 12:34:05;;;;;;;2.03;1.30;;;19.70;99.90;;;;;;5065909;28;19920;-66
2023/07/29 12:36:46;;;;;;;7.15;3.38;;;19.90;99.90;;;;;;5065532;28;20045;-66
2023/07/29 12:39:27;;;;;;;2.35;1.33;;;20.00;99.90;;;;;;5064121;28;20048;-66
2023/07/29 12:41:58;;;;;;;2.47;1.20;;;20.00;99.90;;;;;;5064407;28;20036;-65
2023/07/29 12:44:25;;;;;;;1.77;1.23;;;20.10;99.90;;;;;;5061245;28;20638;-67
2023/07/29 12:46:51;;;;;;;2.00;1.10;;;20.50;99.90;;;;;;5069194;28;20045;-66
2023/07/29 12:49:17;;;;;;;4.47;1.20;;;20.50;99.90;;;;;;5064856;28;20076;-66
2023/07/29 12:51:43;;;;;;;3.55;0.90;;;20.40;99.90;;;;;;5061582;28;20040;-66
2023/07/29 12:54:09;;;;;;;3.00;1.40;;;20.30;99.90;;;;;;5061553;28;20047;-66
2023/07/29 12:56:36;;;;;;;4.45;1.80;;;20.30;99.90;;;;;;5075376;28;20079;-67
2023/07/29 12:59:03;;;;;;;1.98;1.23;;;20.20;99.90;;;;;;5073454;28;20109;-68
2023/07/29 13:01:29;;;;;;;1.20;1.00;;;20.20;99.90;;;;;;5064453;28;20055;-66
2023/07/29 13:03:56;;;;;;;1.63;1.20;;;20.10;99.90;;;;;;5063667;28;20036;-66
2023/07/29 13:06:22;;;;;;;3.00;1.73;;;20.10;99.90;;;;;;5064612;28;20079;-65